sensor_id;sensor_type;location;lat;lon;timestamp;pressure;altitude;pressure_sealevel;temperature;humidity
10510;BME280;5303;53.266;10.410;2023-12-20T00:01:19;100786.81;;;6.07;100.00
10510;BME280;5303;53.266;10.410;2023-12-20T00:03:44;100789.47;;;6.09;100.00
10510;BME280;5303;53.266;10.410;2023-12-20T00:06:10;100787.59;;;6.02;100.00
10510;BME280;5303;53.266;10.410;2023-12-20T00:08:35;100789.28;;;5.97;100.00
10510;BME280;5303;53.266;10.410;2023-12-20T00:11:00;100798.78;;;5.92;100.00
10510;BME280;5303;53.266;10.410;2023-12-20T00:13:26;100793.44;;;5.84;100.00
10510;BME280;5303;53.266;10.410;2023-12-20T00:15:51;100793.34;;;5.81;100.00
10510;BME280;5303;53.266;10.410;2023-12-20T00:18:16;100797.72;;;5.82;100.00
10510;BME280;5303;53.266;10.410;2023-12-20T00:20:41;100798.66;;;5.84;100.00
10510;BME280;5303;53.266;10.410;2023-12-20T00:23:07;100805.53;;;5.77;100.00
10510;BME280;5303;53.266;10.410;2023-12-20T00:25:33;100800.31;;;5.81;100.00
10510;BME280;5303;53.266;10.410;2023-12-20T00:27:58;100803.81;;;5.81;100.00
10510;BME280;5303;53.266;10.410;2023-12-20T00:30:24;100791.56;;;5.78;100.00
10510;BME280;5303;53.266;10.410;2023-12-20T00:32:49;100800.25;;;5.74;100.00
10510;BME280;5303;53.266;10.410;2023-12-20T00:35:15;100800.22;;;5.73;100.00
10510;BME280;5303;53.266;10.410;2023-12-20T00:37:42;100801.19;;;5.79;100.00
10510;BME280;5303;53.266;10.410;2023-12-20T00:40:07;100801.84;;;5.65;100.00
10510;BME280;5303;53.266;10.410;2023-12-20T00:42:33;100793.81;;;5.56;100.00
10510;BME280;5303;53.266;10.410;2023-12-20T00:44:59;100792.03;;;5.53;100.00
10510;BME280;5303;53.266;10.410;2023-12-20T00:47:24;100791.97;;;5.50;100.00
10510;BME280;5303;53.266;10.410;2023-12-20T00:49:50;100792.91;;;5.52;100.00
10510;BME280;5303;53.266;10.410;2023-12-20T00:52:15;100792.91;;;5.52;100.00
10510;BME280;5303;53.266;10.410;2023-12-20T00:54:42;100788.38;;;5.42;100.00
10510;BME280;5303;53.266;10.410;2023-12-20T00:57:07;100785.66;;;5.37;100.00
10510;BME280;5303;53.266;10.410;2023-12-20T00:59:32;100786.50;;;5.35;100.00
10510;BME280;5303;53.266;10.410;2023-12-20T01:01:58;100788.13;;;5.30;100.00
10510;BME280;5303;53.266;10.410;2023-12-20T01:04:23;100782.81;;;5.25;100.00
10510;BME280;5303;53.266;10.410;2023-12-20T01:06:48;100775.88;;;5.26;100.00
10510;BME280;5303;53.266;10.410;2023-12-20T01:09:14;100782.03;;;5.31;100.00
10510;BME280;5303;53.266;10.410;2023-12-20T01:11:39;100783.66;;;5.23;100.00
10510;BME280;5303;53.266;10.410;2023-12-20T01:14:04;100774.06;;;5.22;100.00
10510;BME280;5303;53.266;10.410;2023-12-20T01:16:30;100783.69;;;5.24;100.00
10510;BME280;5303;53.266;10.410;2023-12-20T01:18:55;100780.28;;;5.30;100.00
10510;BME280;5303;53.266;10.410;2023-12-20T01:21:20;100778.63;;;5.33;100.00
10510;BME280;5303;53.266;10.410;2023-12-20T01:23:46;100776.88;;;5.34;100.00
10510;BME280;5303;53.266;10.410;2023-12-20T01:26:11;100780.25;;;5.28;100.00
10510;BME280;5303;53.266;10.410;2023-12-20T01:28:37;100775.03;;;5.30;100.00
10510;BME280;5303;53.266;10.410;2023-12-20T01:31:03;100768.09;;;5.30;100.00
10510;BME280;5303;53.266;10.410;2023-12-20T01:33:29;100767.97;;;5.23;100.00
10510;BME280;5303;53.266;10.410;2023-12-20T01:35:54;100755.78;;;5.23;100.00
10510;BME280;5303;53.266;10.410;2023-12-20T01:38:19;100757.50;;;5.21;100.00
10510;BME280;5303;53.266;10.410;2023-12-20T01:40:45;100760.91;;;5.18;100.00
10510;BME280;5303;53.266;10.410;2023-12-20T01:43:10;100760.94;;;5.20;100.00
10510;BME280;5303;53.266;10.410;2023-12-20T01:45:37;100759.34;;;5.30;100.00
10510;BME280;5303;53.266;10.410;2023-12-20T01:48:04;100762.81;;;5.27;100.00
10510;BME280;5303;53.266;10.410;2023-12-20T01:50:31;100759.16;;;5.19;100.00
10510;BME280;5303;53.266;10.410;2023-12-20T01:52:58;100759.28;;;5.25;100.00
10510;BME280;5303;53.266;10.410;2023-12-20T01:55:25;100754.00;;;5.22;100.00
10510;BME280;5303;53.266;10.410;2023-12-20T01:57:52;100747.91;;;5.22;100.00
10510;BME280;5303;53.266;10.410;2023-12-20T02:00:18;100751.22;;;5.11;100.00
10510;BME280;5303;53.266;10.410;2023-12-20T02:02:44;100744.31;;;5.16;100.00
10510;BME280;5303;53.266;10.410;2023-12-20T02:05:10;100736.50;;;5.18;100.00
10510;BME280;5303;53.266;10.410;2023-12-20T02:07:36;100738.97;;;5.10;100.00
10510;BME280;5303;53.266;10.410;2023-12-20T02:10:01;100732.78;;;5.05;100.00
10510;BME280;5303;53.266;10.410;2023-12-20T02:12:27;100724.94;;;5.05;100.00
10510;BME280;5303;53.266;10.410;2023-12-20T02:14:52;100719.72;;;5.05;100.00
10510;BME280;5303;53.266;10.410;2023-12-20T02:17:19;100728.28;;;4.98;100.00
10510;BME280;5303;53.266;10.410;2023-12-20T02:19:44;100717.78;;;4.95;100.00
10510;BME280;5303;53.266;10.410;2023-12-20T02:22:12;100714.38;;;4.99;100.00
10510;BME280;5303;53.266;10.410;2023-12-20T02:24:38;100713.44;;;4.96;100.00
10510;BME280;5303;53.266;10.410;2023-12-20T02:27:05;100714.16;;;4.87;100.00
10510;BME280;5303;53.266;10.410;2023-12-20T02:29:32;100723.63;;;4.80;100.00
10510;BME280;5303;53.266;10.410;2023-12-20T02:31:57;100721.22;;;4.91;100.00
10510;BME280;5303;53.266;10.410;2023-12-20T02:34:25;100718.69;;;4.97;100.00
10510;BME280;5303;53.266;10.410;2023-12-20T02:36:50;100718.63;;;4.93;100.00
10510;BME280;5303;53.266;10.410;2023-12-20T02:39:16;100717.97;;;5.04;100.00
10510;BME280;5303;53.266;10.410;2023-12-20T02:41:41;100713.59;;;5.03;100.00
10510;BME280;5303;53.266;10.410;2023-12-20T02:44:07;100718.03;;;5.10;100.00
10510;BME280;5303;53.266;10.410;2023-12-20T02:46:32;100718.97;;;5.12;100.00
10510;BME280;5303;53.266;10.410;2023-12-20T02:48:57;100703.22;;;5.09;100.00
10510;BME280;5303;53.266;10.410;2023-12-20T02:51:22;100711.88;;;5.05;100.00
10510;BME280;5303;53.266;10.410;2023-12-20T02:53:48;100700.53;;;5.05;100.00
10510;BME280;5303;53.266;10.410;2023-12-20T02:56:13;100689.06;;;4.98;100.00
10510;BME280;5303;53.266;10.410;2023-12-20T02:58:39;100696.03;;;4.96;100.00
10510;BME280;5303;53.266;10.410;2023-12-20T03:01:05;100696.06;;;4.99;100.00
10510;BME280;5303;53.266;10.410;2023-12-20T03:03:30;100698.66;;;4.98;100.00
10510;BME280;5303;53.266;10.410;2023-12-20T03:05:55;100689.06;;;4.98;100.00
10510;BME280;5303;53.266;10.410;2023-12-20T03:08:20;100691.78;;;5.03;100.00
10510;BME280;5303;53.266;10.410;2023-12-20T03:10:46;100690.09;;;5.06;100.00
10510;BME280;5303;53.266;10.410;2023-12-20T03:13:11;100691.91;;;5.10;100.00
10510;BME280;5303;53.266;10.410;2023-12-20T03:15:36;100686.50;;;5.00;100.00
10510;BME280;5303;53.266;10.410;2023-12-20T03:18:02;100679.53;;;5.00;100.00
10510;BME280;5303;53.266;10.410;2023-12-20T03:20:27;100676.03;;;5.00;100.00
10510;BME280;5303;53.266;10.410;2023-12-20T03:22:53;100669.91;;;4.98;100.00
10510;BME280;5303;53.266;10.410;2023-12-20T03:25:18;100670.75;;;4.95;100.00
10510;BME280;5303;53.266;10.410;2023-12-20T03:27:43;100661.03;;;4.89;100.00
10510;BME280;5303;53.266;10.410;2023-12-20T03:30:09;100660.97;;;4.85;100.00
10510;BME280;5303;53.266;10.410;2023-12-20T03:32:34;100651.34;;;4.81;100.00
10510;BME280;5303;53.266;10.410;2023-12-20T03:35:00;100652.97;;;4.76;100.00
10510;BME280;5303;53.266;10.410;2023-12-20T03:37:25;100644.38;;;4.81;100.00
10510;BME280;5303;53.266;10.410;2023-12-20T03:39:50;100641.66;;;4.77;100.00
10510;BME280;5303;53.266;10.410;2023-12-20T03:42:15;100638.16;;;4.76;100.00
10510;BME280;5303;53.266;10.410;2023-12-20T03:44:41;100642.72;;;4.88;100.00
10510;BME280;5303;53.266;10.410;2023-12-20T03:47:07;100626.13;;;4.84;100.00
10510;BME280;5303;53.266;10.410;2023-12-20T03:49:32;100635.75;;;4.87;100.00
10510;BME280;5303;53.266;10.410;2023-12-20T03:51:57;100631.50;;;4.94;100.00
10510;BME280;5303;53.266;10.410;2023-12-20T03:54:24;100639.31;;;4.92;100.00
10510;BME280;5303;53.266;10.410;2023-12-20T03:56:49;100640.28;;;4.97;100.00
10510;BME280;5303;53.266;10.410;2023-12-20T03:59:15;100640.22;;;4.93;100.00
10510;BME280;5303;53.266;10.410;2023-12-20T04:01:43;100636.69;;;4.90;100.00
10510;BME280;5303;53.266;10.410;2023-12-20T04:04:09;100634.13;;;4.95;100.00
10510;BME280;5303;53.266;10.410;2023-12-20T04:06:34;100628.16;;;5.01;100.00
10510;BME280;5303;53.266;10.410;2023-12-20T04:09:00;100618.47;;;4.95;100.00
10510;BME280;5303;53.266;10.410;2023-12-20T04:11:25;100619.50;;;5.05;100.00
10510;BME280;5303;53.266;10.410;2023-12-20T04:13:50;100604.56;;;4.99;100.00
10510;BME280;5303;53.266;10.410;2023-12-20T04:16:15;100606.59;;;5.15;100.00
10510;BME280;5303;53.266;10.410;2023-12-20T04:18:41;100616.22;;;5.19;100.00
10510;BME280;5303;53.266;10.410;2023-12-20T04:21:06;100598.84;;;5.22;100.00
10510;BME280;5303;53.266;10.410;2023-12-20T04:23:32;100605.00;;;5.27;100.00
10510;BME280;5303;53.266;10.410;2023-12-20T04:25:57;100599.75;;;5.24;100.00
10510;BME280;5303;53.266;10.410;2023-12-20T04:28:22;100584.06;;;5.24;100.00
10510;BME280;5303;53.266;10.410;2023-12-20T04:30:48;100585.97;;;5.35;100.00
10510;BME280;5303;53.266;10.410;2023-12-20T04:33:13;100589.50;;;5.39;100.00
10510;BME280;5303;53.266;10.410;2023-12-20T04:35:38;100584.19;;;5.33;100.00
10510;BME280;5303;53.266;10.410;2023-12-20T04:38:05;100592.94;;;5.35;100.00
10510;BME280;5303;53.266;10.410;2023-12-20T04:40:31;100586.84;;;5.37;100.00
10510;BME280;5303;53.266;10.410;2023-12-20T04:42:56;100578.97;;;5.33;100.00
10510;BME280;5303;53.266;10.410;2023-12-20T04:45:21;100580.66;;;5.31;100.00
10510;BME280;5303;53.266;10.410;2023-12-20T04:47:48;100579.72;;;5.26;100.00
10510;BME280;5303;53.266;10.410;2023-12-20T04:50:14;100572.66;;;5.20;100.00
10510;BME280;5303;53.266;10.410;2023-12-20T04:52:39;100562.31;;;5.28;100.00
10510;BME280;5303;53.266;10.410;2023-12-20T04:55:05;100562.31;;;5.29;100.00
10510;BME280;5303;53.266;10.410;2023-12-20T04:57:30;100564.22;;;5.41;100.00
10510;BME280;5303;53.266;10.410;2023-12-20T04:59:55;100557.34;;;5.46;100.00
10510;BME280;5303;53.266;10.410;2023-12-20T05:02:21;100558.03;;;5.33;100.00
10510;BME280;5303;53.266;10.410;2023-12-20T05:04:46;100560.78;;;5.42;100.00
10510;BME280;5303;53.266;10.410;2023-12-20T05:07:11;100561.59;;;5.41;100.00
10510;BME280;5303;53.266;10.410;2023-12-20T05:09:37;100559.97;;;5.49;100.00
10510;BME280;5303;53.266;10.410;2023-12-20T05:12:02;100545.88;;;5.38;100.00
10510;BME280;5303;53.266;10.410;2023-12-20T05:14:27;100549.25;;;5.31;100.00
10510;BME280;5303;53.266;10.410;2023-12-20T05:16:52;100553.75;;;5.41;100.00
10510;BME280;5303;53.266;10.410;2023-12-20T05:19:18;100558.19;;;5.43;100.00
10510;BME280;5303;53.266;10.410;2023-12-20T05:21:43;100547.78;;;5.51;100.00
10510;BME280;5303;53.266;10.410;2023-12-20T05:24:08;100556.59;;;5.55;100.00
10510;BME280;5303;53.266;10.410;2023-12-20T05:26:33;100556.56;;;5.53;100.00
10510;BME280;5303;53.266;10.410;2023-12-20T05:28:59;100558.25;;;5.51;100.00
10510;BME280;5303;53.266;10.410;2023-12-20T05:31:24;100549.63;;;5.55;100.00
10510;BME280;5303;53.266;10.410;2023-12-20T05:33:49;100547.78;;;5.49;100.00
10510;BME280;5303;53.266;10.410;2023-12-20T05:36:15;100550.47;;;5.53;100.00
10510;BME280;5303;53.266;10.410;2023-12-20T05:38:40;100557.44;;;5.52;100.00
10510;BME280;5303;53.266;10.410;2023-12-20T05:41:05;100543.38;;;5.45;100.00
10510;BME280;5303;53.266;10.410;2023-12-20T05:43:31;100557.38;;;5.50;100.00
10510;BME280;5303;53.266;10.410;2023-12-20T05:45:56;100565.22;;;5.50;100.00
10510;BME280;5303;53.266;10.410;2023-12-20T05:48:21;100567.06;;;5.56;100.00
10510;BME280;5303;53.266;10.410;2023-12-20T05:50:46;100557.44;;;5.54;100.00
10510;BME280;5303;53.266;10.410;2023-12-20T05:53:12;100560.84;;;5.49;100.00
10510;BME280;5303;53.266;10.410;2023-12-20T05:55:37;100553.75;;;5.39;100.00
10510;BME280;5303;53.266;10.410;2023-12-20T05:58:02;100550.53;;;5.60;100.00
10510;BME280;5303;53.266;10.410;2023-12-20T06:00:28;100553.09;;;5.54;100.00
10510;BME280;5303;53.266;10.410;2023-12-20T06:02:53;100543.50;;;5.55;100.00
10510;BME280;5303;53.266;10.410;2023-12-20T06:05:18;100546.09;;;5.53;100.00
10510;BME280;5303;53.266;10.410;2023-12-20T06:07:44;100540.78;;;5.47;100.00
10510;BME280;5303;53.266;10.410;2023-12-20T06:10:12;100547.72;;;5.45;100.00
10510;BME280;5303;53.266;10.410;2023-12-20T06:12:38;100544.22;;;5.43;100.00
10510;BME280;5303;53.266;10.410;2023-12-20T06:15:04;100541.81;;;5.61;100.00
10510;BME280;5303;53.266;10.410;2023-12-20T06:17:31;100535.75;;;5.62;100.00
10510;BME280;5303;53.266;10.410;2023-12-20T06:19:56;100527.97;;;5.70;100.00
10510;BME280;5303;53.266;10.410;2023-12-20T06:22:21;100528.78;;;5.63;100.00
10510;BME280;5303;53.266;10.410;2023-12-20T06:24:47;100527.06;;;5.65;100.00
10510;BME280;5303;53.266;10.410;2023-12-20T06:27:12;100527.81;;;5.55;100.00
10510;BME280;5303;53.266;10.410;2023-12-20T06:29:38;100517.34;;;5.56;100.00
10510;BME280;5303;53.266;10.410;2023-12-20T06:32:03;100521.59;;;5.48;100.00
10510;BME280;5303;53.266;10.410;2023-12-20T06:34:29;100509.59;;;5.64;100.00
10510;BME280;5303;53.266;10.410;2023-12-20T06:36:54;100513.09;;;5.64;100.00
10510;BME280;5303;53.266;10.410;2023-12-20T06:39:19;100511.28;;;5.60;100.00
10510;BME280;5303;53.266;10.410;2023-12-20T06:41:45;100507.75;;;5.57;100.00
10510;BME280;5303;53.266;10.410;2023-12-20T06:44:10;100510.47;;;5.63;100.00
10510;BME280;5303;53.266;10.410;2023-12-20T06:46:35;100513.97;;;5.65;100.00
10510;BME280;5303;53.266;10.410;2023-12-20T06:49:00;100506.13;;;5.66;100.00
10510;BME280;5303;53.266;10.410;2023-12-20T06:51:26;100511.41;;;5.69;100.00
10510;BME280;5303;53.266;10.410;2023-12-20T06:53:52;100502.75;;;5.73;100.00
10510;BME280;5303;53.266;10.410;2023-12-20T06:56:17;100499.28;;;5.79;100.00
10510;BME280;5303;53.266;10.410;2023-12-20T06:58:42;100489.66;;;5.75;100.00
10510;BME280;5303;53.266;10.410;2023-12-20T07:01:14;100489.56;;;5.67;100.00
10510;BME280;5303;53.266;10.410;2023-12-20T07:03:40;100484.38;;;5.70;100.00
10510;BME280;5303;53.266;10.410;2023-12-20T07:06:06;100490.66;;;5.85;100.00
10510;BME280;5303;53.266;10.410;2023-12-20T07:08:31;100494.06;;;5.81;100.00
10510;BME280;5303;53.266;10.410;2023-12-20T07:10:56;100478.25;;;5.70;100.00
10510;BME280;5303;53.266;10.410;2023-12-20T07:13:22;100481.75;;;5.72;100.00
10510;BME280;5303;53.266;10.410;2023-12-20T07:15:48;100471.25;;;5.67;100.00
10510;BME280;5303;53.266;10.410;2023-12-20T07:18:13;100475.59;;;5.64;100.00
10510;BME280;5303;53.266;10.410;2023-12-20T07:20:38;100472.22;;;5.75;100.00
10510;BME280;5303;53.266;10.410;2023-12-20T07:23:04;100478.22;;;5.65;100.00
10510;BME280;5303;53.266;10.410;2023-12-20T07:25:29;100486.94;;;5.64;100.00
10510;BME280;5303;53.266;10.410;2023-12-20T07:27:57;100485.19;;;5.66;100.00
10510;BME280;5303;53.266;10.410;2023-12-20T07:30:23;100480.00;;;5.69;100.00
10510;BME280;5303;53.266;10.410;2023-12-20T07:32:48;100480.88;;;5.71;100.00
10510;BME280;5303;53.266;10.410;2023-12-20T07:35:14;100485.28;;;5.72;100.00
10510;BME280;5303;53.266;10.410;2023-12-20T07:37:40;100478.25;;;5.70;100.00
10510;BME280;5303;53.266;10.410;2023-12-20T07:40:06;100480.88;;;5.70;100.00
10510;BME280;5303;53.266;10.410;2023-12-20T07:42:31;100483.50;;;5.71;100.00
10510;BME280;5303;53.266;10.410;2023-12-20T07:44:57;100487.84;;;5.69;100.00
10510;BME280;5303;53.266;10.410;2023-12-20T07:47:22;100479.19;;;5.75;100.00
10510;BME280;5303;53.266;10.410;2023-12-20T07:49:48;100480.09;;;5.78;100.00
10510;BME280;5303;53.266;10.410;2023-12-20T07:52:14;100480.94;;;5.74;100.00
10510;BME280;5303;53.266;10.410;2023-12-20T07:54:39;100479.22;;;5.79;100.00
10510;BME280;5303;53.266;10.410;2023-12-20T07:57:05;100477.47;;;5.78;100.00
10510;BME280;5303;53.266;10.410;2023-12-20T07:59:30;100479.13;;;5.69;100.00
10510;BME280;5303;53.266;10.410;2023-12-20T08:01:56;100473.03;;;5.71;100.00
10510;BME280;5303;53.266;10.410;2023-12-20T08:04:21;100462.56;;;5.71;100.00
10510;BME280;5303;53.266;10.410;2023-12-20T08:06:47;100458.25;;;5.73;100.00
10510;BME280;5303;53.266;10.410;2023-12-20T08:09:12;100460.88;;;5.76;100.00
10510;BME280;5303;53.266;10.410;2023-12-20T08:11:37;100456.56;;;5.80;100.00
10510;BME280;5303;53.266;10.410;2023-12-20T08:14:03;100462.75;;;5.87;100.00
10510;BME280;5303;53.266;10.410;2023-12-20T08:16:28;100450.66;;;5.95;100.00
10510;BME280;5303;53.266;10.410;2023-12-20T08:18:53;100455.75;;;5.86;100.00
10510;BME280;5303;53.266;10.410;2023-12-20T08:21:19;100449.72;;;5.91;100.00
10510;BME280;5303;53.266;10.410;2023-12-20T08:23:46;100449.66;;;5.88;100.00
10510;BME280;5303;53.266;10.410;2023-12-20T08:26:12;100447.81;;;5.78;100.00
10510;BME280;5303;53.266;10.410;2023-12-20T08:28:37;100443.47;;;5.80;100.00
10510;BME280;5303;53.266;10.410;2023-12-20T08:31:03;100458.25;;;5.75;100.00
10510;BME280;5303;53.266;10.410;2023-12-20T08:33:28;100443.47;;;5.78;100.00
10510;BME280;5303;53.266;10.410;2023-12-20T08:35:53;100447.78;;;5.73;100.00
10510;BME280;5303;53.266;10.410;2023-12-20T08:38:19;100443.47;;;5.82;100.00
10510;BME280;5303;53.266;10.410;2023-12-20T08:40:44;100434.81;;;5.86;100.00
10510;BME280;5303;53.266;10.410;2023-12-20T08:43:09;100413.84;;;5.83;100.00
10510;BME280;5303;53.266;10.410;2023-12-20T08:45:35;100405.97;;;5.81;100.00
10510;BME280;5303;53.266;10.410;2023-12-20T08:48:00;100402.53;;;5.85;100.00
10510;BME280;5303;53.266;10.410;2023-12-20T08:50:26;100407.88;;;5.93;100.00
10510;BME280;5303;53.266;10.410;2023-12-20T08:52:51;100415.66;;;5.90;100.00
10510;BME280;5303;53.266;10.410;2023-12-20T08:55:16;100405.25;;;5.93;100.00
10510;BME280;5303;53.266;10.410;2023-12-20T08:57:43;100402.66;;;5.96;100.00
10510;BME280;5303;53.266;10.410;2023-12-20T09:00:09;100398.31;;;6.01;100.00
10510;BME280;5303;53.266;10.410;2023-12-20T09:02:34;100386.97;;;6.02;100.00
10510;BME280;5303;53.266;10.410;2023-12-20T09:05:01;100391.41;;;6.09;100.00
10510;BME280;5303;53.266;10.410;2023-12-20T09:07:27;100382.78;;;6.21;100.00
10510;BME280;5303;53.266;10.410;2023-12-20T09:09:55;100375.84;;;6.27;100.00
10510;BME280;5303;53.266;10.410;2023-12-20T09:12:20;100372.31;;;6.22;100.00
10510;BME280;5303;53.266;10.410;2023-12-20T09:14:48;100375.84;;;6.27;100.00
10510;BME280;5303;53.266;10.410;2023-12-20T09:17:14;100376.72;;;6.26;100.00
10510;BME280;5303;53.266;10.410;2023-12-20T09:19:39;100368.00;;;6.29;100.00
10510;BME280;5303;53.266;10.410;2023-12-20T09:22:05;100367.13;;;6.28;100.00
10510;BME280;5303;53.266;10.410;2023-12-20T09:24:31;100377.53;;;6.19;100.00
10510;BME280;5303;53.266;10.410;2023-12-20T09:26:56;100367.03;;;6.16;100.00
10510;BME280;5303;53.266;10.410;2023-12-20T09:29:22;100374.00;;;6.14;100.00
10510;BME280;5303;53.266;10.410;2023-12-20T09:31:47;100377.44;;;6.04;100.00
10510;BME280;5303;53.266;10.410;2023-12-20T09:34:15;100370.44;;;6.06;100.00
10510;BME280;5303;53.266;10.410;2023-12-20T09:36:40;100370.34;;;5.94;100.00
10510;BME280;5303;53.266;10.410;2023-12-20T09:39:14;100378.22;;;5.95;100.00
10510;BME280;5303;53.266;10.410;2023-12-20T09:41:43;100365.00;;;5.85;100.00
10510;BME280;5303;53.266;10.410;2023-12-20T09:44:15;100358.91;;;5.84;100.00
10510;BME280;5303;53.266;10.410;2023-12-20T09:46:44;100356.25;;;5.83;100.00
10510;BME280;5303;53.266;10.410;2023-12-20T09:49:10;100357.94;;;5.73;100.00
10510;BME280;5303;53.266;10.410;2023-12-20T09:51:36;100371.13;;;5.85;100.00
10510;BME280;5303;53.266;10.410;2023-12-20T09:54:03;100375.47;;;5.86;100.00
10510;BME280;5303;53.266;10.410;2023-12-20T09:56:29;100377.22;;;5.87;100.00
10510;BME280;5303;53.266;10.410;2023-12-20T09:58:55;100391.09;;;5.78;100.00
10510;BME280;5303;53.266;10.410;2023-12-20T10:01:21;100418.22;;;5.84;100.00
10510;BME280;5303;53.266;10.410;2023-12-20T10:03:46;100414.09;;;5.27;100.00
10510;BME280;5303;53.266;10.410;2023-12-20T10:06:12;100377.94;;;4.90;100.00
10510;BME280;5303;53.266;10.410;2023-12-20T10:08:38;100357.72;;;4.77;100.00
10510;BME280;5303;53.266;10.410;2023-12-20T10:11:04;100379.50;;;4.78;100.00
10510;BME280;5303;53.266;10.410;2023-12-20T10:13:30;100409.97;;;4.77;100.00
10510;BME280;5303;53.266;10.410;2023-12-20T10:15:55;100398.69;;;4.80;100.00
10510;BME280;5303;53.266;10.410;2023-12-20T10:18:21;100396.19;;;4.89;100.00
10510;BME280;5303;53.266;10.410;2023-12-20T10:20:46;100402.28;;;4.88;100.00
10510;BME280;5303;53.266;10.410;2023-12-20T10:23:12;100392.81;;;4.98;100.00
10510;BME280;5303;53.266;10.410;2023-12-20T10:25:39;100383.34;;;5.04;100.00
10510;BME280;5303;53.266;10.410;2023-12-20T10:28:15;100375.53;;;5.10;100.00
10510;BME280;5303;53.266;10.410;2023-12-20T10:30:45;100382.63;;;5.19;100.00
10510;BME280;5303;53.266;10.410;2023-12-20T10:33:10;100390.47;;;5.20;100.00
10510;BME280;5303;53.266;10.410;2023-12-20T10:35:36;100377.47;;;5.25;100.00
10510;BME280;5303;53.266;10.410;2023-12-20T10:38:04;100373.13;;;5.26;100.00
10510;BME280;5303;53.266;10.410;2023-12-20T10:40:31;100361.88;;;5.33;100.00
10510;BME280;5303;53.266;10.410;2023-12-20T10:42:58;100368.91;;;5.38;100.00
10510;BME280;5303;53.266;10.410;2023-12-20T10:45:24;100381.19;;;5.45;100.00
10510;BME280;5303;53.266;10.410;2023-12-20T10:47:50;100375.97;;;5.47;100.00
10510;BME280;5303;53.266;10.410;2023-12-20T10:50:16;100385.59;;;5.51;100.00
10510;BME280;5303;53.266;10.410;2023-12-20T10:52:42;100373.38;;;5.50;100.00
10510;BME280;5303;53.266;10.410;2023-12-20T10:55:10;100378.59;;;5.50;100.00
10510;BME280;5303;53.266;10.410;2023-12-20T10:57:36;100370.75;;;5.50;100.00
10510;BME280;5303;53.266;10.410;2023-12-20T11:00:02;100355.91;;;5.47;100.00
10510;BME280;5303;53.266;10.410;2023-12-20T11:02:39;100354.19;;;5.48;100.00
10510;BME280;5303;53.266;10.410;2023-12-20T11:07:57;100342.03;;;5.53;100.00
10510;BME280;5303;53.266;10.410;2023-12-20T11:10:38;100352.44;;;5.47;100.00
10510;BME280;5303;53.266;10.410;2023-12-20T11:13:10;100341.94;;;5.44;100.00
10510;BME280;5303;53.266;10.410;2023-12-20T11:15:39;100335.84;;;5.43;100.00
10510;BME280;5303;53.266;10.410;2023-12-20T11:18:05;100339.38;;;5.50;100.00
10510;BME280;5303;53.266;10.410;2023-12-20T11:20:39;100342.03;;;5.53;100.00
10510;BME280;5303;53.266;10.410;2023-12-20T11:23:05;100335.06;;;5.52;100.00
10510;BME280;5303;53.266;10.410;2023-12-20T11:25:46;100335.94;;;5.56;100.00
10510;BME280;5303;53.266;10.410;2023-12-20T11:28:12;100333.34;;;5.60;100.00
10510;BME280;5303;53.266;10.410;2023-12-20T11:30:46;100339.44;;;5.58;100.00
10510;BME280;5303;53.266;10.410;2023-12-20T11:33:13;100337.78;;;5.64;100.00
10510;BME280;5303;53.266;10.410;2023-12-20T11:35:39;100329.00;;;5.59;100.00
10510;BME280;5303;53.266;10.410;2023-12-20T11:38:04;100323.75;;;5.59;100.00
10510;BME280;5303;53.266;10.410;2023-12-20T11:40:33;100329.94;;;5.64;100.00
10510;BME280;5303;53.266;10.410;2023-12-20T11:42:59;100327.31;;;5.66;100.00
10510;BME280;5303;53.266;10.410;2023-12-20T11:45:25;100337.81;;;5.69;100.00
10510;BME280;5303;53.266;10.410;2023-12-20T11:47:51;100329.09;;;5.70;100.00
10510;BME280;5303;53.266;10.410;2023-12-20T11:50:19;100333.41;;;5.63;100.00
10510;BME280;5303;53.266;10.410;2023-12-20T11:52:44;100328.19;;;5.63;100.00
10510;BME280;5303;53.266;10.410;2023-12-20T11:55:09;100319.47;;;5.64;100.00
10510;BME280;5303;53.266;10.410;2023-12-20T11:57:35;100333.41;;;5.63;100.00
10510;BME280;5303;53.266;10.410;2023-12-20T12:00:04;100325.59;;;5.71;100.00
10510;BME280;5303;53.266;10.410;2023-12-20T12:02:31;100331.78;;;5.77;100.00
10510;BME280;5303;53.266;10.410;2023-12-20T12:04:57;100331.81;;;5.82;100.00
10510;BME280;5303;53.266;10.410;2023-12-20T12:07:24;100325.75;;;5.86;100.00
10510;BME280;5303;53.266;10.410;2023-12-20T12:09:49;100321.38;;;5.87;100.00
10510;BME280;5303;53.266;10.410;2023-12-20T12:12:15;100321.50;;;5.94;100.00
10510;BME280;5303;53.266;10.410;2023-12-20T12:14:40;100332.84;;;5.98;100.00
10510;BME280;5303;53.266;10.410;2023-12-20T12:17:12;100318.06;;;6.03;100.00
10510;BME280;5303;53.266;10.410;2023-12-20T12:19:39;100326.84;;;6.11;100.00
10510;BME280;5303;53.266;10.410;2023-12-20T12:22:08;100319.84;;;6.10;100.00
10510;BME280;5303;53.266;10.410;2023-12-20T12:24:36;100320.72;;;6.09;100.00
10510;BME280;5303;53.266;10.410;2023-12-20T12:27:02;100308.50;;;6.11;100.00
10510;BME280;5303;53.266;10.410;2023-12-20T12:29:29;100306.78;;;6.13;100.00
10510;BME280;5303;53.266;10.410;2023-12-20T12:31:54;100309.44;;;6.16;100.00
10510;BME280;5303;53.266;10.410;2023-12-20T12:34:20;100305.94;;;6.14;100.00
10510;BME280;5303;53.266;10.410;2023-12-20T12:36:45;100305.94;;;6.17;100.00
10510;BME280;5303;53.266;10.410;2023-12-20T12:39:14;100306.75;;;6.12;100.00
10510;BME280;5303;53.266;10.410;2023-12-20T12:41:42;100311.13;;;6.11;100.00
10510;BME280;5303;53.266;10.410;2023-12-20T12:44:08;100305.88;;;6.06;100.00
10510;BME280;5303;53.266;10.410;2023-12-20T12:46:33;100315.47;;;6.04;100.00